Terminal Aerodrome Forecast
Issued by NWS

Home | Current Version | Previous Version | Text Only | Print | Product List | Glossary On
Versions: 1 2 3 4 5 6 7 8 9 10 11 12 13 14 15 16 17 18 19 20 21 22 23 24 25 26 27 28 29 30 31 32 33 34 35 36 37
000
FTUS42 KJAX 040342 AAC
TAFCRG
TAF AMD
KCRG 040342Z 0404/0424 21008KT P6SM VCSH SCT008 BKN070
     FM040600 22009KT P6SM VCSH BKN020
     FM040900 24007KT P6SM BKN025 BKN200
     FM041600 25007KT P6SM VCTS BKN035CB BKN250=

USA.gov is the U.S. government's official web portal to all federal, state and local government web resources and services.